Time;durP1;ratioP1;P1;durP2;ratioP2;P2;SDS_P1;SDS_P2;PMS_P1;PMS_P2;Temp;Humidity;BMP_temperature;BMP_pressure;BME280_temperature;BME280_humidity;BME280_pressure;Samples;Min_cycle;Max_cycle;Signal;HPM_P1;HPM_P2
2023/08/02 00:01:18;;;;;;;13.17;5.37;;;;;;;;;;5070482;28;20639;-63
2023/08/02 00:03:44;;;;;;;11.20;5.37;;;;;;;;;;5070291;28;20067;-63
2023/08/02 00:06:10;;;;;;;14.43;4.80;;;;;;;;;;5070408;28;20130;-63
2023/08/02 00:08:35;;;;;;;14.87;5.03;;;;;;;;;;5070362;28;20123;-63
2023/08/02 00:11:03;;;;;;;11.27;4.90;;;;;;;;;;5068733;28;20067;-63
2023/08/02 00:13:29;;;;;;;13.73;4.87;;;;;;;;;;5070213;28;20052;-64
2023/08/02 00:15:55;;;;;;;11.77;4.70;;;;;;;;;;5070380;28;20573;-63
2023/08/02 00:18:21;;;;;;;16.93;5.00;;;;;;;;;;5069866;28;20049;-64
2023/08/02 00:20:48;;;;;;;16.57;5.23;;;;;;;;;;5070033;28;20045;-63
2023/08/02 00:23:14;;;;;;;14.83;5.10;;;;;;;;;;5069571;28;20052;-63
2023/08/02 00:25:40;;;;;;;15.83;5.10;;;;;;;;;;5069533;28;20401;-63
2023/08/02 00:28:06;;;;;;;13.70;5.40;;;;;;;;;;5069740;28;20041;-64
2023/08/02 00:30:32;;;;;;;16.27;4.33;;;;;;;;;;5070014;28;20106;-63
2023/08/02 00:32:59;;;;;;;15.17;4.90;;;;;;;;;;5069566;28;20053;-63
2023/08/02 00:35:25;;;;;;;8.97;4.70;;;;;;;;;;5069721;28;20054;-63
2023/08/02 00:37:51;;;;;;;10.70;4.83;;;;;;;;;;5069549;28;20044;-63
2023/08/02 00:40:17;;;;;;;11.80;5.03;;;;;;;;;;5069882;28;20593;-63
2023/08/02 00:42:43;;;;;;;12.43;4.83;;;;;;;;;;5069387;28;20166;-63
2023/08/02 00:45:09;;;;;;;13.10;4.73;;;;;;;;;;5069216;28;20063;-63
2023/08/02 00:47:35;;;;;;;13.63;5.33;;;;;;;;;;5069620;28;20332;-63
2023/08/02 00:50:02;;;;;;;15.53;4.80;;;;;;;;;;5068681;28;20186;-63
2023/08/02 00:52:28;;;;;;;12.87;4.63;;;;;;;;;;5069304;28;20040;-63
2023/08/02 00:54:54;;;;;;;12.57;4.73;;;;;;;;;;5067922;28;20123;-63
2023/08/02 00:57:21;;;;;;;20.60;5.57;;;;;;;;;;5069217;28;20404;-64
2023/08/02 00:59:47;;;;;;;12.70;4.70;;;;;;;;;;5068961;28;20048;-63
2023/08/02 01:02:13;;;;;;;13.23;4.83;;;;;;;;;;5069113;28;20037;-63
2023/08/02 01:04:39;;;;;;;12.10;4.73;;;;;;;;;;5069256;28;20047;-63
2023/08/02 01:07:08;;;;;;;13.07;5.77;;;;;;;;;;5068619;28;20573;-63
2023/08/02 01:09:53;;;;;;;17.63;5.87;;;;;;;;;;5069080;28;20094;-63
2023/08/02 01:12:20;;;;;;;18.80;6.07;;;;;;;;;;5068880;28;20071;-63
2023/08/02 01:14:51;;;;;;;22.33;6.17;;;;;;;;;;5069158;28;20051;-63
2023/08/02 01:17:17;;;;;;;18.93;6.30;;;;;;;;;;5068443;28;20163;-63
2023/08/02 01:19:43;;;;;;;19.13;5.90;;;;;;;;;;5068749;28;20075;-63
2023/08/02 01:22:09;;;;;;;27.83;6.27;;;;;;;;;;5068419;28;20113;-64
2023/08/02 01:24:36;;;;;;;19.93;4.93;;;;;;;;;;5068514;28;20472;-63
2023/08/02 01:27:06;;;;;;;19.73;6.17;;;;;;;;;;5068860;28;20123;-63
2023/08/02 01:29:32;;;;;;;17.07;6.13;;;;;;;;;;5068804;28;20130;-63
2023/08/02 01:31:59;;;;;;;17.87;7.30;;;;;;;;;;5068570;28;20082;-63
2023/08/02 01:34:26;;;;;;;27.20;6.90;;;;;;;;;;5068540;28;20141;-63
2023/08/02 01:36:52;;;;;;;24.20;6.67;;;;;;;;;;5068541;28;20036;-63
2023/08/02 01:39:18;;;;;;;24.67;7.60;;;;;;;;;;5067878;28;20094;-63
2023/08/02 01:41:44;;;;;;;22.67;6.50;;;;;;;;;;5068230;28;20059;-63
2023/08/02 01:44:10;;;;;;;17.80;6.23;;;;;;;;;;5067158;28;20049;-63
2023/08/02 01:46:36;;;;;;;24.23;6.97;;;;;;;;;;5068405;28;20044;-63
2023/08/02 01:49:02;;;;;;;21.50;6.60;;;;;;;;;;5067913;28;20072;-64
2023/08/02 01:51:28;;;;;;;23.23;7.13;;;;;;;;;;5068456;28;20041;-63
2023/08/02 01:53:54;;;;;;;21.53;7.03;;;;;;;;;;5068401;28;20453;-63
2023/08/02 01:56:20;;;;;;;21.33;6.70;;;;;;;;;;5068270;28;20067;-63
2023/08/02 01:58:46;;;;;;;22.93;6.20;;;;;;;;;;5067891;28;20436;-63
2023/08/02 02:01:12;;;;;;;20.83;7.17;;;;;;;;;;5068011;28;20079;-64
2023/08/02 02:03:38;;;;;;;23.53;7.37;;;;;;;;;;5068198;28;20102;-63
2023/08/02 02:06:04;;;;;;;26.30;7.70;;;;;;;;;;5068165;28;20051;-63
2023/08/02 02:08:30;;;;;;;23.13;7.10;;;;;;;;;;5068448;28;20421;-63
2023/08/02 02:10:56;;;;;;;27.03;7.70;;;;;;;;;;5067929;28;20462;-63
2023/08/02 02:13:23;;;;;;;27.90;6.63;;;;;;;;;;5068140;28;20418;-63
2023/08/02 02:15:49;;;;;;;26.37;6.63;;;;;;;;;;5068489;28;20500;-63
2023/08/02 02:18:16;;;;;;;27.57;8.03;;;;;;;;;;5068045;28;20048;-63
2023/08/02 02:20:42;;;;;;;21.53;7.10;;;;;;;;;;5067934;28;20087;-63
2023/08/02 02:23:08;;;;;;;22.50;6.80;;;;;;;;;;5067659;28;20095;-63
2023/08/02 02:25:34;;;;;;;22.73;6.90;;;;;;;;;;5067740;28;20423;-63
2023/08/02 02:28:00;;;;;;;27.03;6.30;;;;;;;;;;5066820;28;20044;-63
2023/08/02 02:30:26;;;;;;;16.33;6.30;;;;;;;;;;5067401;28;20079;-63
2023/08/02 02:32:52;;;;;;;23.10;6.60;;;;;;;;;;5068213;28;20036;-63
2023/08/02 02:35:18;;;;;;;25.00;6.37;;;;;;;;;;5070594;28;20094;-63
2023/08/02 02:37:44;;;;;;;19.00;6.03;;;;;;;;;;5071877;28;20051;-64
2023/08/02 02:40:10;;;;;;;22.60;6.90;;;;;;;;;;5071483;28;20041;-63
2023/08/02 02:42:42;;;;;;;19.40;6.20;;;;;;;;;;5071849;28;20056;-63
2023/08/02 02:45:09;;;;;;;21.53;5.70;;;;;;;;;;5071652;28;20048;-63
2023/08/02 02:47:35;;;;;;;24.03;7.20;;;;;;;;;;5071842;28;20041;-63
2023/08/02 02:50:02;;;;;;;20.97;7.57;;;;;;;;;;5071370;28;20528;-63
2023/08/02 02:52:28;;;;;;;17.23;5.70;;;;;;;;;;5071702;28;20496;-63
2023/08/02 02:54:54;;;;;;;18.73;7.00;;;;;;;;;;5071579;28;20443;-63
2023/08/02 02:57:20;;;;;;;15.57;6.83;;;;;;;;;;5071625;28;20063;-63
2023/08/02 02:59:46;;;;;;;21.57;6.17;;;;;;;;;;5071459;28;20094;-63
2023/08/02 03:02:12;;;;;;;17.07;7.33;;;;;;;;;;5071591;28;20048;-63
2023/08/02 03:04:38;;;;;;;18.80;7.70;;;;;;;;;;5070946;28;20044;-63
2023/08/02 03:07:04;;;;;;;23.07;7.23;;;;;;;;;;5071784;28;20045;-63
2023/08/02 03:09:30;;;;;;;18.57;6.47;;;;;;;;;;5071601;28;20486;-63
2023/08/02 03:11:56;;;;;;;19.57;7.30;;;;;;;;;;5071381;28;20076;-63
2023/08/02 03:14:22;;;;;;;17.93;7.13;;;;;;;;;;5071215;28;20457;-63
2023/08/02 03:16:48;;;;;;;22.13;7.30;;;;;;;;;;5070925;28;20044;-63
2023/08/02 03:19:14;;;;;;;17.87;8.33;;;;;;;;;;5071361;28;20048;-63
2023/08/02 03:21:40;;;;;;;19.53;7.90;;;;;;;;;;5071111;28;20131;-63
2023/08/02 03:24:06;;;;;;;19.50;7.87;;;;;;;;;;5071176;28;20044;-63
2023/08/02 03:26:32;;;;;;;19.67;8.13;;;;;;;;;;5070527;28;20051;-63
2023/08/02 03:28:58;;;;;;;22.27;9.23;;;;;;;;;;5069654;28;20056;-63
2023/08/02 03:31:24;;;;;;;18.00;8.80;;;;;;;;;;5071033;28;20048;-63
2023/08/02 03:33:50;;;;;;;18.63;8.37;;;;;;;;;;5070928;28;20036;-63
2023/08/02 03:36:16;;;;;;;18.53;9.33;;;;;;;;;;5070608;28;20502;-63
2023/08/02 03:38:42;;;;;;;20.33;8.73;;;;;;;;;;5070780;28;20045;-63
2023/08/02 03:41:09;;;;;;;26.07;8.90;;;;;;;;;;5070405;28;20037;-63
2023/08/02 03:43:35;;;;;;;18.60;7.70;;;;;;;;;;5070473;28;20044;-63
2023/08/02 03:46:02;;;;;;;20.67;8.73;;;;;;;;;;5070401;28;20103;-63
2023/08/02 03:48:28;;;;;;;22.27;9.13;;;;;;;;;;5070832;28;20052;-63
2023/08/02 03:50:55;;;;;;;25.03;7.60;;;;;;;;;;5070977;28;20121;-63
2023/08/02 03:53:21;;;;;;;22.30;9.13;;;;;;;;;;5070499;28;20055;-63
2023/08/02 03:55:47;;;;;;;22.70;8.67;;;;;;;;;;5070531;28;20041;-63
2023/08/02 03:58:13;;;;;;;25.33;9.03;;;;;;;;;;5070437;28;20045;-63
2023/08/02 04:00:39;;;;;;;22.33;9.70;;;;;;;;;;5070578;28;20076;-63
2023/08/02 04:03:05;;;;;;;21.00;8.40;;;;;;;;;;5069845;28;20063;-63
2023/08/02 04:05:31;;;;;;;22.93;9.63;;;;;;;;;;5070581;28;20522;-63
2023/08/02 04:07:57;;;;;;;23.47;9.67;;;;;;;;;;5070208;28;20037;-63
2023/08/02 04:10:24;;;;;;;22.53;9.60;;;;;;;;;;5069935;28;20052;-63
2023/08/02 04:12:51;;;;;;;25.30;10.67;;;;;;;;;;5069745;28;20110;-63
2023/08/02 04:15:17;;;;;;;18.67;8.63;;;;;;;;;;5070072;28;20045;-63
2023/08/02 04:17:43;;;;;;;29.53;10.03;;;;;;;;;;5069720;28;20560;-63
2023/08/02 04:20:09;;;;;;;21.50;8.70;;;;;;;;;;5069885;28;20082;-63
2023/08/02 04:22:35;;;;;;;19.40;8.87;;;;;;;;;;5069764;28;20036;-63
2023/08/02 04:25:03;;;;;;;21.63;8.77;;;;;;;;;;5069362;28;20055;-63
2023/08/02 04:27:29;;;;;;;24.90;9.40;;;;;;;;;;5069161;28;20048;-63
2023/08/02 04:29:55;;;;;;;27.37;9.90;;;;;;;;;;5069601;28;20056;-63
2023/08/02 04:32:21;;;;;;;18.17;8.30;;;;;;;;;;5069468;28;20094;-63
2023/08/02 04:34:47;;;;;;;19.47;10.20;;;;;;;;;;5069183;28;20584;-63
2023/08/02 04:37:13;;;;;;;23.30;8.90;;;;;;;;;;5069586;28;20063;-63
2023/08/02 04:39:39;;;;;;;16.80;9.27;;;;;;;;;;5069396;28;20048;-63
2023/08/02 04:42:05;;;;;;;24.80;9.20;;;;;;;;;;5069145;28;20127;-63
2023/08/02 04:44:31;;;;;;;18.87;9.60;;;;;;;;;;5068866;28;20045;-63
2023/08/02 04:46:57;;;;;;;17.93;9.23;;;;;;;;;;5069183;28;20128;-63
2023/08/02 04:49:23;;;;;;;22.43;9.47;;;;;;;;;;5069133;28;20040;-63
2023/08/02 04:51:49;;;;;;;18.57;9.30;;;;;;;;;;5069126;28;20047;-63
2023/08/02 04:54:15;;;;;;;20.20;9.20;;;;;;;;;;5068531;28;20063;-63
2023/08/02 04:56:41;;;;;;;20.80;8.70;;;;;;;;;;5068479;28;20044;-63
2023/08/02 04:59:07;;;;;;;21.13;8.60;;;;;;;;;;5068787;28;20041;-63
2023/08/02 05:01:33;;;;;;;19.57;8.70;;;;;;;;;;5068879;28;20052;-63
2023/08/02 05:03:59;;;;;;;19.70;8.50;;;;;;;;;;5068974;28;20048;-63
2023/08/02 05:06:25;;;;;;;23.17;8.47;;;;;;;;;;5067548;28;20520;-63
2023/08/02 05:08:51;;;;;;;20.27;9.07;;;;;;;;;;5068807;28;20064;-63
2023/08/02 05:11:17;;;;;;;23.13;9.57;;;;;;;;;;5068910;28;20162;-63
2023/08/02 05:13:43;;;;;;;24.73;9.20;;;;;;;;;;5068239;28;20425;-63
2023/08/02 05:16:13;;;;;;;18.73;8.63;;;;;;;;;;5068672;28;20044;-63
2023/08/02 05:18:39;;;;;;;16.43;8.00;;;;;;;;;;5069046;28;20059;-63
2023/08/02 05:21:12;;;;;;;21.77;9.53;;;;;;;;;;5068522;28;20044;-63
2023/08/02 05:23:38;;;;;;;16.38;8.45;;;;;;;;;;5068675;28;20491;-63
2023/08/02 05:26:04;;;;;;;17.10;7.93;;;;;;;;;;5068566;28;20044;-63
2023/08/02 05:28:30;;;;;;;21.37;8.77;;;;;;;;;;5067974;28;20137;-63
2023/08/02 05:30:56;;;;;;;18.93;7.60;;;;;;;;;;5068636;28;20521;-63
2023/08/02 05:33:22;;;;;;;17.90;7.50;;;;;;;;;;5068471;28;20048;-63
2023/08/02 05:35:48;;;;;;;14.93;7.00;;;;;;;;;;5068317;28;20125;-63
2023/08/02 05:38:14;;;;;;;18.67;7.47;;;;;;;;;;5068401;28;20517;-63
2023/08/02 05:40:40;;;;;;;14.70;6.53;;;;;;;;;;5067764;28;20041;-63
2023/08/02 05:43:06;;;;;;;13.73;6.93;;;;;;;;;;5068163;28;20510;-63
2023/08/02 05:45:32;;;;;;;12.10;6.10;;;;;;;;;;5068539;28;20071;-63
2023/08/02 05:47:59;;;;;;;17.67;6.70;;;;;;;;;;5068514;28;20123;-63
2023/08/02 05:50:25;;;;;;;12.80;7.63;;;;;;;;;;5067551;28;20048;-63
2023/08/02 05:52:51;;;;;;;18.80;6.47;;;;;;;;;;5068603;28;20044;-63
2023/08/02 05:55:17;;;;;;;16.87;6.23;;;;;;;;;;5067998;28;20046;-63
2023/08/02 05:57:43;;;;;;;14.80;6.77;;;;;;;;;;5068101;28;20105;-63
2023/08/02 06:00:09;;;;;;;17.63;6.20;;;;;;;;;;5067660;28;20468;-63
2023/08/02 06:02:37;;;;;;;12.20;6.53;;;;;;;;;;5068110;28;20120;-63
2023/08/02 06:05:03;;;;;;;13.27;5.90;;;;;;;;;;5067973;28;20044;-63
2023/08/02 06:07:29;;;;;;;13.00;5.50;;;;;;;;;;5067689;28;20056;-63
2023/08/02 06:09:55;;;;;;;17.03;6.00;;;;;;;;;;5067258;28;20055;-63
2023/08/02 06:12:21;;;;;;;9.90;5.60;;;;;;;;;;5067861;28;20383;-63
2023/08/02 06:14:47;;;;;;;12.20;6.20;;;;;;;;;;5068314;28;20037;-63
2023/08/02 06:17:13;;;;;;;10.67;5.80;;;;;;;;;;5068491;28;20067;-63
2023/08/02 06:19:39;;;;;;;15.43;6.17;;;;;;;;;;5067555;28;20592;-63
2023/08/02 06:22:05;;;;;;;12.13;6.00;;;;;;;;;;5067941;28;20055;-63
2023/08/02 06:24:31;;;;;;;13.37;6.30;;;;;;;;;;5067947;28;20044;-63
2023/08/02 06:26:57;;;;;;;15.10;5.43;;;;;;;;;;5067368;28;20051;-63
2023/08/02 06:29:23;;;;;;;14.03;5.50;;;;;;;;;;5067760;28;20052;-63
2023/08/02 06:31:49;;;;;;;12.97;5.60;;;;;;;;;;5067724;28;20469;-63
2023/08/02 06:34:15;;;;;;;9.90;5.27;;;;;;;;;;5067652;28;20037;-63
2023/08/02 06:36:41;;;;;;;9.63;4.87;;;;;;;;;;5067215;28;20040;-63
2023/08/02 06:39:07;;;;;;;11.37;5.30;;;;;;;;;;5067741;28;20086;-62
2023/08/02 06:41:33;;;;;;;12.57;5.43;;;;;;;;;;5067410;28;20052;-63
2023/08/02 06:43:59;;;;;;;11.07;5.53;;;;;;;;;;5067546;28;20128;-63
2023/08/02 06:46:25;;;;;;;10.80;5.07;;;;;;;;;;5067085;28;20052;-63
2023/08/02 06:48:51;;;;;;;11.60;5.30;;;;;;;;;;5067372;28;20421;-63
2023/08/02 06:51:17;;;;;;;13.30;4.77;;;;;;;;;;5067752;28;20135;-63
2023/08/02 06:53:43;;;;;;;12.23;5.27;;;;;;;;;;5067472;28;20076;-63
2023/08/02 06:56:18;;;;;;;17.00;6.13;;;;;;;;;;5067064;28;20589;-62
2023/08/02 06:58:45;;;;;;;9.63;4.57;;;;;;;;;;5067469;28;20456;-63
2023/08/02 07:01:12;;;;;;;14.70;5.57;;;;;;;;;;5067521;28;20353;-62
2023/08/02 07:03:38;;;;;;;9.27;4.63;;;;;;;;;;5066121;28;20625;-63
2023/08/02 07:06:08;;;;;;;14.40;4.83;;;;;;;;;;5067511;28;20154;-62
2023/08/02 07:08:34;;;;;;;13.60;4.90;;;;;;;;;;5067683;28;20154;-62
2023/08/02 07:11:00;;;;;;;12.87;5.60;;;;;;;;;;5067816;28;20492;-63
2023/08/02 07:13:26;;;;;;;13.00;5.37;;;;;;;;;;5067437;28;20041;-63
2023/08/02 07:15:52;;;;;;;12.67;5.93;;;;;;;;;;5067520;28;20122;-63
2023/08/02 07:18:17;;;;;;;21.13;6.63;;;;;;;;;;5065759;28;20041;-63
2023/08/02 07:20:43;;;;;;;13.77;5.70;;;;;;;;;;5068650;28;20051;-63
2023/08/02 07:23:09;;;;;;;15.57;6.43;;;;;;;;;;5070971;28;20079;-63
2023/08/02 07:25:35;;;;;;;18.33;6.63;;;;;;;;;;5070909;28;20118;-63
2023/08/02 07:28:01;;;;;;;16.67;7.03;;;;;;;;;;5071361;28;20044;-63
2023/08/02 07:30:27;;;;;;;19.17;7.27;;;;;;;;;;5070355;28;20597;-63
2023/08/02 07:32:53;;;;;;;18.47;7.30;;;;;;;;;;5071193;28;20036;-63
2023/08/02 07:35:19;;;;;;;22.83;6.97;;;;;;;;;;5070658;28;20037;-63
2023/08/02 07:37:45;;;;;;;23.43;6.70;;;;;;;;;;5070233;28;20047;-64
2023/08/02 07:40:13;;;;;;;20.47;7.50;;;;;;;;;;5070280;28;20048;-64
2023/08/02 07:42:39;;;;;;;13.43;6.70;;;;;;;;;;5069305;28;20131;-64
2023/08/02 07:45:07;;;;;;;28.73;7.07;;;;;;;;;;5070516;28;20136;-64
2023/08/02 07:47:33;;;;;;;23.23;7.30;;;;;;;;;;5070301;28;20040;-64
2023/08/02 07:49:59;;;;;;;16.53;7.17;;;;;;;;;;5070297;28;20070;-64
2023/08/02 07:52:25;;;;;;;34.03;8.23;;;;;;;;;;5070429;28;20529;-64
2023/08/02 07:54:54;;;;;;;23.70;8.80;;;;;;;;;;5069989;28;20052;-64
2023/08/02 07:57:21;;;;;;;35.17;8.33;;;;;;;;;;5070216;28;20052;-64
2023/08/02 07:59:47;;;;;;;28.13;7.20;;;;;;;;;;5069971;28;20044;-64
2023/08/02 08:02:13;;;;;;;23.43;8.07;;;;;;;;;;5070314;28;20375;-64
2023/08/02 08:04:39;;;;;;;24.13;7.43;;;;;;;;;;5070257;28;20060;-64
2023/08/02 08:07:05;;;;;;;19.37;7.50;;;;;;;;;;5070249;28;20485;-64
2023/08/02 08:09:31;;;;;;;25.40;8.97;;;;;;;;;;5070244;28;20101;-64
2023/08/02 08:11:57;;;;;;;20.17;9.07;;;;;;;;;;5069562;28;20564;-64
2023/08/02 08:14:24;;;;;;;19.80;8.33;;;;;;;;;;5070143;28;20041;-63
2023/08/02 08:16:50;;;;;;;21.70;8.73;;;;;;;;;;5068634;28;20045;-63
2023/08/02 08:19:16;;;;;;;28.37;10.50;;;;;;;;;;5069765;28;20059;-63
2023/08/02 08:21:42;;;;;;;32.47;10.27;;;;;;;;;;5069694;28;20044;-63
2023/08/02 08:24:10;;;;;;;23.90;10.67;;;;;;;;;;5069412;28;20392;-63
2023/08/02 08:26:36;;;;;;;24.10;10.77;;;;;;;;;;5069766;28;20059;-63
2023/08/02 08:29:02;;;;;;;25.57;10.33;;;;;;;;;;5069503;28;20048;-63
2023/08/02 08:31:28;;;;;;;23.30;9.67;;;;;;;;;;5068962;28;20044;-63
2023/08/02 08:33:54;;;;;;;24.43;11.07;;;;;;;;;;5069610;28;20052;-63
2023/08/02 08:36:21;;;;;;;30.20;12.17;;;;;;;;;;5069021;28;20763;-63
2023/08/02 08:38:47;;;;;;;26.80;11.70;;;;;;;;;;5069272;28;20080;-63
2023/08/02 08:41:14;;;;;;;19.90;8.90;;;;;;;;;;5069628;28;20052;-64
2023/08/02 08:43:40;;;;;;;29.37;12.03;;;;;;;;;;5069289;28;20122;-63
2023/08/02 08:46:07;;;;;;;19.83;8.23;;;;;;;;;;5068741;28;20044;-64
2023/08/02 08:48:35;;;;;;;20.60;9.47;;;;;;;;;;5069448;28;20044;-64
2023/08/02 08:51:02;;;;;;;21.73;9.30;;;;;;;;;;5069300;28;20549;-63
2023/08/02 08:53:32;;;;;;;33.97;9.97;;;;;;;;;;5068707;28;20487;-64
2023/08/02 08:55:59;;;;;;;24.13;11.37;;;;;;;;;;5069118;28;20080;-64
2023/08/02 08:58:25;;;;;;;32.03;11.87;;;;;;;;;;5068802;28;20048;-64
2023/08/02 09:00:52;;;;;;;24.50;12.43;;;;;;;;;;5069062;28;20044;-65
2023/08/02 09:03:18;;;;;;;27.33;11.83;;;;;;;;;;5068940;28;20048;-64
2023/08/02 09:05:44;;;;;;;26.03;12.13;;;;;;;;;;5068991;28;20041;-65
2023/08/02 09:08:10;;;;;;;25.67;14.20;;;;;;;;;;5068973;28;20044;-64
2023/08/02 09:10:37;;;;;;;29.30;13.33;;;;;;;;;;5069163;28;20045;-64
2023/08/02 09:13:03;;;;;;;32.73;15.43;;;;;;;;;;5068371;28;20098;-64
2023/08/02 09:15:29;;;;;;;32.53;16.23;;;;;;;;;;5068641;28;20078;-64
2023/08/02 09:17:55;;;;;;;36.37;15.37;;;;;;;;;;5069052;28;20052;-64
2023/08/02 09:20:23;;;;;;;26.00;13.37;;;;;;;;;;5068546;28;20086;-63
2023/08/02 09:22:49;;;;;;;31.00;16.13;;;;;;;;;;5068822;28;20044;-64
2023/08/02 09:25:28;;;;;;;28.63;13.90;;;;;;;;;;5068072;28;20051;-64
2023/08/02 09:28:00;;;;;;;26.40;13.63;;;;;;;;;;5067740;28;20426;-64
2023/08/02 09:30:32;;;;;;;26.55;12.93;;;;;;;;;;5068654;28;20063;-64
2023/08/02 09:32:59;;;;;;;20.60;12.90;;;;;;;;;;5068838;28;20672;-63
2023/08/02 09:35:25;;;;;;;21.57;12.10;;;;;;;;;;5067957;28;20147;-64
2023/08/02 09:37:51;;;;;;;18.80;11.00;;;;;;;;;;5068588;28;20040;-64
2023/08/02 09:40:17;;;;;;;23.03;10.73;;;;;;;;;;5068314;28;20052;-64
2023/08/02 09:42:43;;;;;;;27.20;15.10;;;;;;;;;;5066485;28;20052;-64
2023/08/02 09:45:10;;;;;;;22.27;12.70;;;;;;;;;;5068492;28;20973;-64
2023/08/02 09:47:36;;;;;;;20.90;11.37;;;;;;;;;;5068376;28;20048;-64
2023/08/02 09:50:16;;;;;;;27.60;13.23;;;;;;;;;;5067927;28;20036;-64
2023/08/02 09:52:42;;;;;;;23.13;11.13;;;;;;;;;;5068366;28;20136;-64
2023/08/02 09:55:08;;;;;;;21.00;10.80;;;;;;;;;;5068164;28;20052;-64
2023/08/02 09:57:34;;;;;;;20.80;11.87;;;;;;;;;;5067342;28;20054;-64
2023/08/02 10:00:04;;;;;;;15.80;9.53;;;;;;;;;;5067570;28;20048;-64
2023/08/02 10:02:31;;;;;;;14.63;9.00;;;;;;;;;;5068310;28;20087;-64
2023/08/02 10:04:58;;;;;;;18.40;10.50;;;;;;;;;;5068022;28;20050;-64
2023/08/02 10:07:42;;;;;;;28.60;13.13;;;;;;;;;;5068393;28;20119;-64
2023/08/02 10:10:12;;;;;;;23.80;12.83;;;;;;;;;;5067918;28;20041;-63
2023/08/02 10:12:39;;;;;;;16.13;9.77;;;;;;;;;;5067458;28;20036;-63
2023/08/02 10:15:05;;;;;;;11.23;6.57;;;;;;;;;;5068172;28;20052;-63
2023/08/02 10:17:32;;;;;;;8.77;5.47;;;;;;;;;;5068306;28;20579;-64
2023/08/02 10:20:03;;;;;;;10.10;7.60;;;;;;;;;;5067596;28;20063;-63
2023/08/02 10:22:29;;;;;;;13.10;9.20;;;;;;;;;;5067830;28;20063;-63
2023/08/02 10:24:56;;;;;;;12.53;8.60;;;;;;;;;;5067137;28;20624;-63
2023/08/02 10:27:22;;;;;;;16.83;9.33;;;;;;;;;;5067880;28;20387;-63
2023/08/02 10:29:49;;;;;;;11.03;7.63;;;;;;;;;;5067606;28;20041;-63
2023/08/02 10:32:17;;;;;;;18.37;9.43;;;;;;;;;;5067499;28;20625;-64
2023/08/02 10:34:43;;;;;;;10.67;6.17;;;;;;;;;;5067917;28;20051;-64
2023/08/02 10:37:09;;;;;;;12.67;7.77;;;;;;;;;;5067725;28;20473;-64
2023/08/02 10:39:50;;;;;;;10.43;6.20;;;;;;;;;;5067321;28;20110;-64
2023/08/02 10:42:29;;;;;;;10.23;5.87;;;;;;;;;;5066153;28;20048;-63
2023/08/02 10:44:55;;;;;;;10.50;6.30;;;;;;;;;;5066065;28;20052;-64
2023/08/02 10:47:31;;;;;;;7.43;4.97;;;;;;;;;;5067432;28;20048;-63
2023/08/02 10:49:58;;;;;;;7.60;4.90;;;;;;;;;;5067487;28;20358;-63
2023/08/02 10:52:24;;;;;;;10.40;6.40;;;;;;;;;;5067675;28;20131;-63
2023/08/02 10:55:02;;;;;;;5.97;3.30;;;;;;;;;;5066478;28;20059;-64
2023/08/02 10:57:28;;;;;;;5.83;4.33;;;;;;;;;;5071563;28;20044;-63
2023/08/02 10:59:54;;;;;;;6.93;4.30;;;;;;;;;;5070778;28;20070;-63
2023/08/02 11:02:22;;;;;;;7.03;4.53;;;;;;;;;;5071135;28;20045;-63
2023/08/02 11:04:48;;;;;;;6.33;4.70;;;;;;;;;;5071553;28;20602;-63
2023/08/02 11:07:18;;;;;;;9.23;5.83;;;;;;;;;;5069914;28;20044;-63
2023/08/02 11:09:48;;;;;;;8.70;5.03;;;;;;;;;;5071322;28;20051;-63
2023/08/02 11:12:18;;;;;;;6.93;5.83;;;;;;;;;;5071026;28;20040;-63
2023/08/02 11:14:46;;;;;;;5.77;4.53;;;;;;;;;;5071237;28;20044;-64
2023/08/02 11:17:16;;;;;;;8.10;4.70;;;;;;;;;;5071038;28;20040;-63
2023/08/02 11:19:47;;;;;;;5.83;4.77;;;;;;;;;;5069893;28;20056;-62
2023/08/02 11:22:13;;;;;;;5.27;4.37;;;;;;;;;;5070680;28;20053;-63
2023/08/02 11:24:50;;;;;;;42.00;7.80;;;;;;;;;;5071018;28;20044;-63
2023/08/02 11:27:21;;;;;;;21.17;6.53;;;;;;;;;;5071026;28;20044;-63
2023/08/02 11:29:58;;;;;;;13.37;4.23;;;;;;;;;;5070357;28;20514;-63
2023/08/02 11:32:24;;;;;;;33.10;6.70;;;;;;;;;;5071136;28;20036;-63
2023/08/02 11:34:50;;;;;;;17.30;3.93;;;;;;;;;;5070899;28;20059;-63
2023/08/02 11:37:16;;;;;;;15.63;4.93;;;;;;;;;;5070659;28;20119;-63
2023/08/02 11:39:55;;;;;;;8.67;3.53;;;;;;;;;;5070847;28;21046;-64
2023/08/02 11:42:21;;;;;;;25.87;6.87;;;;;;;;;;5069827;28;20506;-63
2023/08/02 11:44:47;;;;;;;2.77;2.17;;;;;;;;;;5070872;28;20060;-64
2023/08/02 11:47:13;;;;;;;3.10;2.10;;;;;;;;;;5070987;28;20044;-63
2023/08/02 11:49:49;;;;;;;2.30;1.70;;;;;;;;;;5070747;28;20045;-64
2023/08/02 11:52:24;;;;;;;2.00;1.70;;;;;;;;;;5070028;28;20267;-64
2023/08/02 11:54:50;;;;;;;2.00;1.80;;;;;;;;;;5070695;28;20045;-64
2023/08/02 11:57:16;;;;;;;2.70;1.63;;;;;;;;;;5070332;28;20040;-64
2023/08/02 11:59:44;;;;;;;4.63;2.07;;;;;;;;;;5070506;28;20486;-64
2023/08/02 12:02:29;;;;;;;2.70;1.83;;;;;;;;;;5070385;28;20391;-64
2023/08/02 12:04:56;;;;;;;1.97;1.70;;;;;;;;;;5069824;28;20052;-64
2023/08/02 12:07:25;;;;;;;3.27;2.60;;;;;;;;;;5070215;28;20518;-65
2023/08/02 12:09:51;;;;;;;2.17;1.60;;;;;;;;;;5070347;28;20473;-64
2023/08/02 12:12:17;;;;;;;2.20;1.70;;;;;;;;;;5069866;28;20533;-64
2023/08/02 12:14:43;;;;;;;3.05;1.45;;;;;;;;;;5069682;28;20041;-64
2023/08/02 12:17:17;;;;;;;2.07;1.57;;;;;;;;;;5070260;28;20047;-64
2023/08/02 12:19:43;;;;;;;2.35;1.70;;;;;;;;;;5069796;28;20048;-65
2023/08/02 12:22:09;;;;;;;3.92;1.60;;;;;;;;;;5068485;28;20036;-64
2023/08/02 12:24:35;;;;;;;2.43;1.73;;;;;;;;;;5069933;28;20041;-64
2023/08/02 12:27:15;;;;;;;2.33;1.50;;;;;;;;;;5069010;28;20040;-64
2023/08/02 12:29:44;;;;;;;2.30;1.48;;;;;;;;;;5069350;28;20097;-64
2023/08/02 12:32:11;;;;;;;3.55;1.30;;;;;;;;;;5069740;28;20060;-64
2023/08/02 12:34:37;;;;;;;7.53;2.22;;;;;;;;;;5069851;28;20469;-64
2023/08/02 12:37:04;;;;;;;2.17;1.50;;;;;;;;;;5069050;28;20140;-64
2023/08/02 12:39:30;;;;;;;3.38;1.30;;;;;;;;;;5069214;28;20502;-64
2023/08/02 12:41:56;;;;;;;2.08;1.30;;;;;;;;;;5069707;28;20051;-63
2023/08/02 12:44:22;;;;;;;3.08;1.33;;;;;;;;;;5069087;28;20064;-63
2023/08/02 12:46:48;;;;;;;1.90;1.30;;;;;;;;;;5069434;28;20415;-63
2023/08/02 12:49:14;;;;;;;1.75;1.10;;;;;;;;;;5069175;28;20044;-63
2023/08/02 12:51:40;;;;;;;1.83;1.10;;;;;;;;;;5068937;28;20071;-62
2023/08/02 12:54:06;;;;;;;3.03;1.10;;;;;;;;;;5069149;28;20049;-62
2023/08/02 12:56:35;;;;;;;5.70;1.50;;;;;;;;;;5069236;28;20094;-62
2023/08/02 12:59:01;;;;;;;2.13;1.23;;;;;;;;;;5069042;28;20040;-62
2023/08/02 13:01:27;;;;;;;1.90;1.02;;;;;;;;;;5069089;28;20047;-62
2023/08/02 13:03:53;;;;;;;2.95;1.80;;;;;;;;;;5069107;28;20117;-61
2023/08/02 13:06:19;;;;;;;1.67;1.02;;;;;;;;;;5068514;28;20119;-61
2023/08/02 13:08:45;;;;;;;2.10;1.27;;;;;;;;;;5069212;28;20045;-61
2023/08/02 13:11:11;;;;;;;6.28;1.30;;;;;;;;;;5068814;28;20044;-62
2023/08/02 13:13:37;;;;;;;3.88;1.23;;;;;;;;;;5069033;28;20055;-61
2023/08/02 13:16:03;;;;;;;3.05;1.08;;;;;;;;;;5068877;28;20076;-61
2023/08/02 13:18:29;;;;;;;4.95;1.30;;;;;;;;;;5067765;28;20514;-61
2023/08/02 13:20:55;;;;;;;2.45;1.02;;;;;;;;;;5068583;28;20084;-61
2023/08/02 13:23:21;;;;;;;2.47;0.90;;;;;;;;;;5068614;28;20052;-61
2023/08/02 13:25:47;;;;;;;2.58;0.95;;;;;;;;;;5068630;28;20048;-61
2023/08/02 13:28:15;;;;;;;3.88;1.20;;;;;;;;;;5068347;28;20044;-61
2023/08/02 13:30:42;;;;;;;3.78;1.13;;;;;;;;;;5068247;28;20052;-61
2023/08/02 13:33:08;;;;;;;3.08;1.35;;;;;;;;;;5068641;28;20584;-61
2023/08/02 13:35:34;;;;;;;5.25;1.33;;;;;;;;;;5068653;28;20041;-60
2023/08/02 13:38:00;;;;;;;2.97;1.10;;;;;;;;;;5068330;28;20482;-60
2023/08/02 13:40:26;;;;;;;2.95;1.33;;;;;;;;;;5068003;28;21052;-60
2023/08/02 13:42:52;;;;;;;2.83;0.90;;;;;;;;;;5068000;28;20068;-60
2023/08/02 13:45:18;;;;;;;3.17;1.10;;;;;;;;;;5068322;28;20062;-60
2023/08/02 13:47:44;;;;;;;4.90;1.50;;;;;;;;;;5067980;28;20040;-61
2023/08/02 13:50:10;;;;;;;3.55;1.00;;;;;;;;;;5068435;28;20048;-60
2023/08/02 13:52:36;;;;;;;4.72;1.17;;;;;;;;;;5067702;28;20033;-60
2023/08/02 13:55:05;;;;;;;4.13;1.20;;;;;;;;;;5067948;28;20133;-60
2023/08/02 13:57:31;;;;;;;3.40;1.23;;;;;;;;;;5068200;28;20076;-60
2023/08/02 13:59:57;;;;;;;4.80;1.38;;;;;;;;;;5068370;28;20502;-60
2023/08/02 14:02:23;;;;;;;4.90;1.08;;;;;;;;;;5068097;28;20055;-61
2023/08/02 14:04:49;;;;;;;5.03;1.02;;;;;;;;;;5067615;28;20040;-60
2023/08/02 14:07:15;;;;;;;5.47;1.08;;;;;;;;;;5068215;28;20094;-60
2023/08/02 14:09:41;;;;;;;4.35;1.00;;;;;;;;;;5068118;28;20418;-60
2023/08/02 14:12:09;;;;;;;5.13;1.25;;;;;;;;;;5067765;28;20540;-61
2023/08/02 14:14:35;;;;;;;7.63;1.65;;;;;;;;;;5068197;28;20047;-60
2023/08/02 14:17:02;;;;;;;3.00;0.73;;;;;;;;;;5067946;28;20045;-60
2023/08/02 14:19:28;;;;;;;4.00;0.90;;;;;;;;;;5067808;28;20352;-60
2023/08/02 14:21:54;;;;;;;3.28;0.73;;;;;;;;;;5067894;28;20486;-60
2023/08/02 14:24:20;;;;;;;3.47;0.98;;;;;;;;;;5067766;28;20106;-60
2023/08/02 14:26:46;;;;;;;3.08;0.63;;;;;;;;;;5067775;28;20052;-60
2023/08/02 14:29:12;;;;;;;3.67;1.02;;;;;;;;;;5067869;28;20056;-60